createdAt,value
2022-09-04T00:00:07.640Z,2.70
2022-09-04T00:03:01.003Z,2.20
2022-09-04T00:05:44.538Z,2.30
2022-09-04T00:08:47.622Z,2.47
2022-09-04T00:11:29.626Z,2.33
2022-09-04T00:14:00.357Z,2.22
2022-09-04T00:16:41.255Z,2.05
2022-09-04T00:19:16.484Z,2.85
2022-09-04T00:21:52.786Z,2.15
2022-09-04T00:24:36.541Z,2.25
2022-09-04T00:27:17.604Z,2.03
2022-09-04T00:30:02.266Z,2.85
2022-09-04T00:32:40.148Z,2.80
2022-09-04T00:35:35.319Z,2.33
2022-09-04T00:38:08.506Z,2.90
2022-09-04T00:40:40.682Z,2.67
2022-09-04T00:43:51.791Z,2.42
2022-09-04T00:46:54.901Z,2.42
2022-09-04T00:49:45.771Z,2.25
2022-09-04T00:52:36.271Z,2.15
2022-09-04T00:55:21.971Z,2.47
2022-09-04T00:58:19.322Z,2.08
2022-09-04T01:00:46.912Z,1.63
2022-09-04T01:03:39.533Z,2.38
2022-09-04T01:06:20.296Z,1.98
2022-09-04T01:09:21.512Z,1.75
2022-09-04T01:11:56.170Z,1.55
2022-09-04T01:14:36.090Z,2.47
2022-09-04T01:17:17.687Z,2.83
2022-09-04T01:19:55.595Z,2.10
2022-09-04T01:22:43.666Z,1.88
2022-09-04T01:25:43.715Z,2.50
2022-09-04T01:28:42.770Z,1.95
2022-09-04T01:31:21.158Z,2.35
2022-09-04T01:34:23.118Z,1.70
2022-09-04T01:37:00.364Z,1.90
2022-09-04T01:39:32.133Z,2.05
2022-09-04T01:42:09.568Z,1.73
2022-09-04T01:44:36.038Z,1.83
2022-09-04T01:47:21.096Z,1.98
2022-09-04T01:49:59.785Z,2.10
2022-09-04T01:53:02.107Z,1.92
2022-09-04T01:56:08.597Z,2.15
2022-09-04T01:58:53.463Z,2.17
2022-09-04T02:01:37.187Z,2.08
2022-09-04T02:04:16.321Z,2.10
2022-09-04T02:06:54.754Z,2.38
2022-09-04T02:09:46.907Z,2.28
2022-09-04T02:12:39.428Z,2.53
2022-09-04T02:15:24.343Z,2.33
2022-09-04T02:18:08.580Z,2.28
2022-09-04T02:20:35.200Z,2.22
2022-09-04T02:23:20.068Z,2.13
2022-09-04T02:26:13.186Z,1.80
2022-09-04T02:28:51.470Z,1.60
2022-09-04T02:31:34.883Z,1.70
2022-09-04T02:34:08.658Z,2.38
2022-09-04T02:36:50.134Z,2.38
2022-09-04T02:39:52.066Z,2.03
2022-09-04T02:42:31.214Z,1.88
2022-09-04T02:45:24.037Z,2.10
2022-09-04T02:47:53.358Z,2.05
2022-09-04T02:50:41.598Z,1.83
2022-09-04T02:53:19.470Z,2.05
2022-09-04T02:55:52.545Z,2.05
2022-09-04T02:58:56.210Z,1.77
2022-09-04T03:01:32.692Z,2.35
2022-09-04T03:04:13.903Z,1.88
2022-09-04T03:06:53.686Z,2.40
2022-09-04T03:09:44.405Z,1.85
2022-09-04T03:12:51.864Z,1.95
2022-09-04T03:15:55.660Z,1.75
2022-09-04T03:18:31.505Z,1.77
2022-09-04T03:21:03.317Z,1.70
2022-09-04T03:23:55.923Z,2.58
2022-09-04T03:26:35.306Z,2.03
2022-09-04T03:29:17.682Z,2.65
2022-09-04T03:32:18.556Z,2.53
2022-09-04T03:34:56.651Z,2.72
2022-09-04T03:37:48.242Z,2.15
2022-09-04T03:40:38.783Z,2.42
2022-09-04T03:43:17.021Z,2.20
2022-09-04T03:45:51.674Z,2.40
2022-09-04T03:48:37.562Z,2.35
2022-09-04T03:51:18.238Z,2.15
2022-09-04T03:53:51.654Z,2.47
2022-09-04T03:56:33.595Z,2.08
2022-09-04T03:59:20.572Z,2.38
2022-09-04T04:01:57.300Z,1.95
2022-09-04T04:04:48.952Z,2.10
2022-09-04T04:07:27.396Z,1.85
2022-09-04T04:10:13.604Z,1.92
2022-09-04T04:13:02.624Z,2.30
2022-09-04T04:15:46.458Z,2.13
2022-09-04T04:18:33.610Z,2.25
2022-09-04T04:21:33.887Z,2.47
2022-09-04T04:24:30.270Z,2.50
2022-09-04T04:29:58.383Z,2.30
2022-09-04T04:32:49.651Z,2.63
2022-09-04T04:35:29.984Z,2.78
2022-09-04T04:38:05.534Z,2.35
2022-09-04T04:40:49.856Z,2.55
2022-09-04T04:43:48.574Z,2.35
2022-09-04T04:46:52.114Z,2.30
2022-09-04T04:49:46.703Z,1.60
2022-09-04T04:52:19.009Z,2.58
2022-09-04T04:55:03.795Z,1.67
2022-09-04T04:57:58.788Z,2.20
2022-09-04T05:00:34.883Z,2.00
2022-09-04T05:03:23.447Z,2.38
2022-09-04T05:06:12.448Z,2.00
2022-09-04T05:08:38.886Z,2.08
2022-09-04T05:11:26.792Z,2.40
2022-09-04T05:14:22.336Z,2.80
2022-09-04T05:17:17.891Z,2.13
2022-09-04T05:19:59.262Z,2.30
2022-09-04T05:22:40.347Z,2.90
2022-09-04T05:25:25.607Z,2.42
2022-09-04T05:28:21.551Z,2.53
2022-09-04T05:30:56.436Z,2.60
2022-09-04T05:33:37.212Z,2.25
2022-09-04T05:36:12.426Z,2.78
2022-09-04T05:38:54.843Z,2.58
2022-09-04T05:42:12.283Z,3.05
2022-09-04T05:47:20.052Z,3.00
2022-09-04T05:50:21.496Z,3.15
2022-09-04T05:53:00.486Z,3.53
2022-09-04T05:56:06.499Z,3.00
2022-09-04T05:58:59.114Z,3.60
2022-09-04T06:02:03.057Z,3.55
2022-09-04T06:04:50.729Z,2.90
2022-09-04T06:07:26.228Z,3.47
2022-09-04T06:12:52.995Z,3.60
2022-09-04T06:15:36.245Z,3.72
2022-09-04T06:18:17.470Z,3.20
2022-09-04T06:21:22.740Z,3.50
2022-09-04T06:24:29.402Z,4.07
2022-09-04T06:27:10.787Z,3.67
2022-09-04T06:30:03.719Z,3.58
2022-09-04T06:33:11.615Z,3.22
2022-09-04T06:35:54.742Z,4.22
2022-09-04T06:38:52.036Z,3.90
2022-09-04T06:41:18.286Z,3.78
2022-09-04T06:43:56.704Z,3.88
2022-09-04T06:46:38.606Z,3.65
2022-09-04T06:49:14.728Z,3.83
2022-09-04T06:51:59.402Z,3.75
2022-09-04T06:54:43.649Z,3.60
2022-09-04T06:57:34.457Z,4.00
2022-09-04T07:00:12.139Z,3.60
2022-09-04T07:03:13.159Z,3.40
2022-09-04T07:06:01.140Z,3.53
2022-09-04T07:08:51.815Z,2.85
2022-09-04T07:11:18.142Z,3.20
2022-09-04T07:14:03.520Z,2.50
2022-09-04T07:16:54.679Z,2.70
2022-09-04T07:19:34.789Z,3.08
2022-09-04T07:22:35.048Z,3.15
2022-09-04T07:25:11.672Z,2.70
2022-09-04T07:27:51.361Z,2.97
2022-09-04T07:30:18.976Z,2.25
2022-09-04T07:33:11.072Z,2.45
2022-09-04T07:35:45.531Z,2.15
2022-09-04T07:38:26.664Z,2.65
2022-09-04T07:41:02.465Z,2.50
2022-09-04T07:43:51.445Z,2.85
2022-09-04T07:46:41.549Z,2.20
2022-09-04T07:49:20.249Z,2.35
2022-09-04T07:51:55.667Z,2.53
2022-09-04T07:54:52.926Z,2.50
2022-09-04T07:57:59.774Z,2.25
2022-09-04T08:00:26.866Z,2.55
2022-09-04T08:03:30.846Z,2.42
2022-09-04T08:06:10.101Z,1.95
2022-09-04T08:08:56.373Z,2.03
2022-09-04T08:11:58.138Z,1.90
2022-09-04T08:15:08.849Z,1.90
2022-09-04T08:18:12.072Z,2.40
2022-09-04T08:20:45.717Z,2.00
2022-09-04T08:23:49.758Z,1.90
2022-09-04T08:26:18.907Z,1.75
2022-09-04T08:28:56.388Z,2.30
2022-09-04T08:31:36.452Z,1.95
2022-09-04T08:34:19.334Z,1.73
2022-09-04T08:36:55.259Z,1.88
2022-09-04T08:39:34.697Z,1.80
2022-09-04T08:43:05.656Z,1.58
2022-09-04T08:45:43.820Z,1.55
2022-09-04T08:48:52.276Z,1.23
2022-09-04T08:51:18.541Z,1.25
2022-09-04T08:54:06.336Z,1.30
2022-09-04T08:56:47.352Z,1.50
2022-09-04T08:59:23.165Z,1.38
2022-09-04T09:02:35.521Z,1.38
2022-09-04T09:05:17.223Z,1.17
2022-09-04T09:08:21.383Z,1.15
2022-09-04T09:11:07.498Z,0.95
2022-09-04T09:13:48.987Z,1.35
2022-09-04T09:16:42.826Z,1.25
2022-09-04T09:19:19.492Z,1.20
2022-09-04T09:22:17.578Z,1.10
2022-09-04T09:25:11.509Z,1.13
2022-09-04T09:27:56.422Z,1.65
2022-09-04T09:30:23.625Z,1.00
2022-09-04T09:33:02.833Z,1.45
2022-09-04T09:35:53.500Z,1.27
2022-09-04T09:38:38.030Z,1.08
2022-09-04T09:41:23.327Z,1.10
2022-09-04T09:44:04.426Z,0.90
2022-09-04T09:46:39.932Z,1.13
2022-09-04T09:49:49.455Z,1.20
2022-09-04T09:52:40.851Z,1.00
2022-09-04T09:55:41.170Z,1.05
2022-09-04T09:58:19.740Z,0.85
2022-09-04T10:01:08.353Z,1.40
2022-09-04T10:03:49.645Z,0.90
2022-09-04T10:06:53.180Z,1.00
2022-09-04T10:09:34.639Z,1.23
2022-09-04T10:12:36.151Z,1.30
2022-09-04T10:15:28.328Z,1.00
2022-09-04T10:18:37.790Z,0.82
2022-09-04T10:21:32.284Z,0.90
2022-09-04T10:24:17.138Z,1.20
2022-09-04T10:27:15.393Z,0.95
2022-09-04T10:30:05.833Z,1.00
2022-09-04T10:32:32.155Z,1.27
2022-09-04T10:35:36.485Z,1.10
2022-09-04T10:38:25.889Z,0.75
2022-09-04T10:41:31.571Z,1.00
2022-09-04T10:44:13.148Z,0.60
2022-09-04T10:47:18.760Z,1.08
2022-09-04T10:49:53.529Z,0.47
2022-09-04T10:52:34.296Z,0.88
2022-09-04T10:55:19.103Z,0.68
2022-09-04T10:58:06.970Z,0.60
2022-09-04T11:01:07.714Z,0.90
2022-09-04T11:03:58.704Z,0.77
2022-09-04T11:06:39.660Z,0.82
2022-09-04T11:09:19.652Z,0.63
2022-09-04T11:12:34.063Z,0.73
2022-09-04T11:15:50.076Z,0.65
2022-09-04T11:18:37.854Z,0.60
2022-09-04T11:21:20.815Z,0.70
2022-09-04T11:24:09.159Z,0.50
2022-09-04T11:26:35.661Z,0.40
2022-09-04T11:29:14.583Z,0.60
2022-09-04T11:32:18.316Z,0.50
2022-09-04T11:35:12.824Z,0.60
2022-09-04T11:38:15.237Z,0.70
2022-09-04T11:41:03.434Z,0.93
2022-09-04T11:43:52.196Z,0.80
2022-09-04T11:46:31.562Z,0.80
2022-09-04T11:49:35.776Z,0.98
2022-09-04T11:52:25.120Z,0.90
2022-09-04T11:54:54.469Z,0.63
2022-09-04T11:57:35.995Z,0.50
2022-09-04T12:00:13.690Z,0.70
2022-09-04T12:03:11.261Z,0.98
2022-09-04T12:06:07.092Z,0.60
2022-09-04T12:09:01.715Z,0.85
2022-09-04T12:11:52.108Z,0.55
2022-09-04T12:14:59.080Z,0.57
2022-09-04T12:17:58.828Z,0.80
2022-09-04T12:20:59.018Z,0.40
2022-09-04T12:24:03.969Z,0.50
2022-09-04T12:27:00.662Z,0.50
2022-09-04T12:29:52.397Z,0.70
2022-09-04T12:32:56.636Z,0.60
2022-09-04T12:35:32.158Z,0.65
2022-09-04T12:38:14.100Z,0.70
2022-09-04T12:40:52.383Z,0.50
2022-09-04T12:43:38.978Z,0.40
2022-09-04T12:46:50.781Z,0.70
2022-09-04T12:49:32.155Z,0.50
2022-09-04T12:52:31.824Z,0.50
2022-09-04T12:55:24.183Z,0.50
2022-09-04T12:58:05.851Z,0.45
2022-09-04T13:00:46.068Z,0.50
2022-09-04T13:03:34.386Z,0.47
2022-09-04T13:06:19.644Z,0.40
2022-09-04T13:08:52.193Z,0.60
2022-09-04T13:11:51.624Z,0.40
2022-09-04T13:14:33.198Z,0.50
2022-09-04T13:17:16.493Z,0.80
2022-09-04T13:20:11.606Z,0.40
2022-09-04T13:23:11.519Z,0.60
2022-09-04T13:25:48.170Z,0.43
2022-09-04T13:28:33.004Z,0.45
2022-09-04T13:31:19.388Z,0.50
2022-09-04T13:34:21.523Z,0.55
2022-09-04T13:37:10.392Z,0.73
2022-09-04T13:40:11.237Z,0.60
2022-09-04T13:42:59.230Z,0.57
2022-09-04T13:45:30.076Z,0.73
2022-09-04T13:48:00.310Z,0.90
2022-09-04T13:50:51.455Z,0.85
2022-09-04T13:53:24.253Z,0.60
2022-09-04T13:55:58.213Z,0.65
2022-09-04T13:58:38.106Z,0.70
2022-09-04T14:01:09.920Z,0.70
2022-09-04T14:03:55.230Z,0.88
2022-09-04T14:06:24.914Z,0.43
2022-09-04T14:08:59.680Z,0.40
2022-09-04T14:12:08.624Z,0.50
2022-09-04T14:14:55.941Z,0.50
2022-09-04T14:17:34.424Z,0.70
2022-09-04T14:20:13.582Z,0.90
2022-09-04T14:22:57.936Z,0.55
2022-09-04T14:25:42.744Z,0.80
2022-09-04T14:28:37.730Z,0.83
2022-09-04T14:31:21.836Z,0.63
2022-09-04T14:34:07.836Z,0.90
2022-09-04T14:36:55.969Z,0.50
2022-09-04T14:39:45.606Z,1.00
2022-09-04T14:42:33.836Z,0.55
2022-09-04T14:45:18.514Z,0.60
2022-09-04T14:47:54.175Z,0.73
2022-09-04T14:50:25.566Z,0.65
2022-09-04T14:53:19.455Z,0.70
2022-09-04T14:56:11.617Z,0.82
2022-09-04T14:58:56.503Z,0.57
2022-09-04T15:01:24.755Z,0.73
2022-09-04T15:04:14.884Z,0.77
2022-09-04T15:07:10.446Z,0.90
2022-09-04T15:09:40.438Z,0.50
2022-09-04T15:12:24.847Z,0.75
2022-09-04T15:15:10.414Z,0.70
2022-09-04T15:17:45.613Z,0.50
2022-09-04T15:20:20.371Z,0.85
2022-09-04T15:23:06.331Z,0.90
2022-09-04T15:25:59.742Z,0.60
2022-09-04T15:28:47.399Z,0.75
2022-09-04T15:31:29.900Z,0.50
2022-09-04T15:34:02.696Z,0.70
2022-09-04T15:36:30.419Z,0.73
2022-09-04T15:39:00.536Z,0.68
2022-09-04T15:41:39.406Z,0.65
2022-09-04T15:44:27.844Z,0.68
2022-09-04T15:47:11.708Z,0.80
2022-09-04T15:49:45.372Z,0.70
2022-09-04T15:52:26.046Z,0.77
2022-09-04T15:55:02.724Z,0.50
2022-09-04T15:57:43.918Z,0.90
2022-09-04T16:00:21.762Z,1.05
2022-09-04T16:05:51.603Z,0.80
2022-09-04T16:08:27.100Z,0.80
2022-09-04T16:11:12.474Z,0.85
2022-09-04T16:13:51.482Z,0.60
2022-09-04T16:16:25.114Z,0.73
2022-09-04T16:19:08.034Z,0.93
2022-09-04T16:21:46.710Z,1.13
2022-09-04T16:24:17.669Z,1.00
2022-09-04T16:26:50.918Z,0.98
2022-09-04T16:29:45.755Z,1.05
2022-09-04T16:32:20.385Z,0.77
2022-09-04T16:34:54.018Z,1.10
2022-09-04T16:37:39.118Z,0.90
2022-09-04T16:40:23.806Z,0.80
2022-09-04T16:43:11.000Z,0.77
2022-09-04T16:45:49.654Z,0.95
2022-09-04T16:48:34.984Z,0.80
2022-09-04T16:51:39.238Z,1.20
2022-09-04T16:54:03.542Z,0.93
2022-09-04T16:56:39.255Z,1.25
2022-09-04T16:59:18.695Z,1.15
2022-09-04T17:01:57.289Z,1.20
2022-09-04T17:04:36.803Z,1.10
2022-09-04T17:07:08.330Z,1.55
2022-09-04T17:09:46.304Z,1.17
2022-09-04T17:12:28.903Z,1.48
2022-09-04T17:15:22.826Z,1.10
2022-09-04T17:17:50.281Z,1.23
2022-09-04T17:23:44.341Z,1.20
2022-09-04T17:29:04.279Z,1.30
2022-09-04T17:29:11.935Z,0.95
2022-09-04T17:29:36.270Z,1.17
2022-09-04T17:32:53.792Z,1.10
2022-09-04T17:40:35.105Z,1.00
2022-09-04T17:40:55.961Z,1.00
2022-09-04T17:41:38.244Z,1.23
2022-09-04T17:44:19.802Z,1.30
2022-09-04T17:46:59.100Z,1.13
2022-09-04T17:49:34.491Z,0.77
2022-09-04T17:52:05.395Z,1.42
2022-09-04T17:54:37.836Z,1.25
2022-09-04T17:57:27.858Z,1.20
2022-09-04T18:00:05.315Z,1.15
2022-09-04T18:02:48.493Z,1.27
2022-09-04T18:05:25.735Z,1.67
2022-09-04T18:08:10.580Z,1.30
2022-09-04T18:10:46.463Z,1.75
2022-09-04T18:13:42.536Z,1.92
2022-09-04T18:16:24.010Z,1.35
2022-09-04T18:18:56.907Z,1.60
2022-09-04T18:21:28.947Z,1.73
2022-09-04T18:24:03.724Z,1.50
2022-09-04T18:26:41.233Z,1.60
2022-09-04T18:29:56.885Z,1.48
2022-09-04T18:37:12.565Z,1.70
2022-09-04T18:37:17.997Z,1.20
2022-09-04T18:38:29.211Z,1.58
2022-09-04T18:44:27.159Z,1.23
2022-09-04T18:50:23.119Z,1.63
2022-09-04T18:50:35.748Z,1.60
2022-09-04T18:50:42.793Z,1.70
2022-09-04T18:52:21.151Z,1.45
2022-09-04T18:54:56.883Z,1.60
2022-09-04T18:57:31.882Z,1.90
2022-09-04T19:00:26.981Z,2.08
2022-09-04T19:03:09.254Z,2.03
2022-09-04T19:05:45.095Z,1.90
2022-09-04T19:08:20.467Z,1.80
2022-09-04T19:10:58.007Z,2.30
2022-09-04T19:13:47.957Z,1.95
2022-09-04T19:16:29.657Z,2.22
2022-09-04T19:19:05.153Z,1.77
2022-09-04T19:21:42.107Z,2.00
2022-09-04T19:24:34.368Z,1.65
2022-09-04T19:27:04.075Z,2.00
2022-09-04T19:30:03.524Z,1.90
2022-09-04T19:33:14.775Z,2.53
2022-09-04T19:35:41.196Z,2.40
2022-09-04T19:42:25.619Z,2.33
2022-09-04T19:46:06.802Z,2.85
2022-09-04T19:46:13.088Z,2.38
2022-09-04T19:47:35.242Z,2.47
2022-09-04T19:53:24.292Z,2.90
2022-09-04T19:53:40.755Z,2.38
2022-09-04T19:56:23.347Z,2.60
2022-09-04T19:58:55.851Z,1.80
2022-09-04T20:01:30.614Z,2.28
2022-09-04T20:04:03.829Z,1.88
2022-09-04T20:06:46.432Z,2.40
2022-09-04T20:09:21.764Z,2.38
2022-09-04T20:12:09.235Z,2.53
2022-09-04T20:14:45.931Z,2.28
2022-09-04T20:17:49.894Z,2.67
2022-09-04T20:20:22.457Z,2.45
2022-09-04T20:22:58.266Z,2.03
2022-09-04T20:25:38.446Z,2.13
2022-09-04T20:28:23.714Z,2.35
2022-09-04T20:31:36.023Z,1.95
2022-09-04T20:34:18.298Z,2.88
2022-09-04T20:36:51.592Z,3.25
2022-09-04T20:39:25.440Z,2.97
2022-09-04T20:42:08.020Z,2.40
2022-09-04T20:45:02.960Z,2.80
2022-09-04T20:52:43.090Z,2.65
2022-09-04T20:52:50.936Z,2.47
2022-09-04T20:53:39.188Z,2.03
2022-09-04T20:57:08.968Z,2.00
2022-09-04T21:03:13.104Z,1.90
2022-09-04T21:03:22.400Z,2.30
2022-09-04T21:06:07.623Z,2.47
2022-09-04T21:08:52.438Z,2.30
2022-09-04T21:11:39.233Z,2.30
2022-09-04T21:14:45.057Z,1.90
2022-09-04T21:17:33.271Z,2.28
2022-09-04T21:20:15.392Z,1.83
2022-09-04T21:22:56.866Z,1.70
2022-09-04T21:25:30.584Z,1.95
2022-09-04T21:28:06.766Z,2.10
2022-09-04T21:31:12.839Z,1.60
2022-09-04T21:34:19.524Z,1.83
2022-09-04T21:36:55.895Z,1.63
2022-09-04T21:39:38.103Z,1.75
2022-09-04T21:42:33.659Z,1.70
2022-09-04T21:45:19.890Z,1.63
2022-09-04T21:48:05.165Z,1.92
2022-09-04T21:50:52.736Z,2.17
2022-09-04T21:53:46.786Z,1.98
2022-09-04T22:02:26.549Z,2.08
2022-09-04T22:02:38.114Z,1.85
2022-09-04T22:02:57.651Z,2.08
2022-09-04T22:05:46.225Z,1.65
2022-09-04T22:13:26.310Z,1.80
2022-09-04T22:13:39.586Z,1.63
2022-09-04T22:14:31.210Z,1.60
2022-09-04T22:17:09.856Z,2.03
2022-09-04T22:20:07.029Z,1.63
2022-09-04T22:23:04.765Z,1.80
2022-09-04T22:25:44.412Z,1.48
2022-09-04T22:28:42.475Z,1.85
2022-09-04T22:31:21.165Z,1.80
2022-09-04T22:34:24.875Z,1.83
2022-09-04T22:37:12.408Z,1.90
2022-09-04T22:39:51.589Z,1.95
2022-09-04T22:42:37.200Z,2.10
2022-09-04T22:45:15.558Z,2.38
2022-09-04T22:48:17.126Z,1.95
2022-09-04T22:51:11.000Z,1.85
2022-09-04T22:53:45.861Z,2.20
2022-09-04T22:56:29.004Z,2.00
2022-09-04T22:59:26.484Z,1.92
2022-09-04T23:01:56.342Z,1.90
2022-09-04T23:05:04.874Z,2.00
2022-09-04T23:13:48.403Z,1.90
2022-09-04T23:13:51.283Z,2.88
2022-09-04T23:14:05.286Z,2.40
2022-09-04T23:16:46.427Z,1.85
2022-09-04T23:25:56.813Z,1.73
2022-09-04T23:26:50.366Z,2.08
2022-09-04T23:26:57.852Z,1.40
2022-09-04T23:28:29.598Z,2.03
2022-09-04T23:31:08.598Z,1.60
2022-09-04T23:33:53.912Z,1.75
2022-09-04T23:36:54.884Z,2.05
2022-09-04T23:39:58.287Z,1.90
2022-09-04T23:42:57.121Z,2.10
2022-09-04T23:45:32.222Z,2.03
2022-09-04T23:48:28.577Z,1.83
2022-09-04T23:53:54.603Z,2.28
2022-09-04T23:56:33.340Z,2.15
2022-09-04T23:59:29.795Z,1.90
